Flight UPS578

  • Submitted By: Thomas Lienert
  • Departure Airport: Philadelphia International Airport KPHL (1000-1099) (KPHL)
  • Arrival Airport: Louisville International Airport-Standiford Field KSDF - World Port (100-199) (KSDF)
  • Aircraft: B747-44AF (N572UP)
  • Flight Time: 01.51.17
  • Date Submitted: 05/06/2018
  • Route: KPHL RUANE V166 ESL V4 EKN V174 YRK V44 HAFTU KSDF
  • Status: Accepted
Flight Details
Gross Revenue:
(212397 load / $ 11.15 per unit
$ 2, 368, 226.55
Fuel Cost:
(17920.5 fuel used @ 5.85 / unit)
$ 104, 834.93

Additional Log Information:

View Log

[17:14] ----- Flight Opened -----
[17:14] UPSVAC kACARSII - 1.1.0.1
[17:14] FS: FSX
[17:14] FSUIPC: v4,939
[17:14] Flight Number: UPS578
[17:14] FS Aircraft: Boeing 747-400 UPS
[17:14] FS Model: B744
[17:14] FS Type: BOEING
[17:14] Departure: KPHL
[17:14] Arrival: KSDF
[17:14] Flight Level: 34000
[17:14] Flight Type: C
[17:14] Cargo: 212397
[17:14] FOB: 56413 lbs
[17:14] Crash Detection Aircraft: Disabled
[17:14] NOTE: Boarding has started
[17:14] FS: Paused
[17:14] Parking Brake: Engaged
[17:14] Engine 2: Started
[17:14] FS: Unpaused
[17:20] Parking Brake: Released
[17:20] NOTE: Pushing back
[17:21] Parking Brake: Engaged
[17:22] Engine 3: Started
[17:23] Engine 1: Started
[17:23] Engine 4: Started
[17:24] Parking Brake: Released
[17:25] NOTE: Taxi started
[17:26] Flaps: Position 6
[17:27] Flaps: Position 5
[17:31] Parking Brake: Engaged
[17:33] Parking Brake: Released
[17:35] Autopilot: Engaged
[17:35] Altitude Data: 20 ft AGL | 52 ft AMSL
[17:35] NOTE: ----- TAKE OFF -----
[17:35] Speed Data: 184 knots GS | 197 knots TAS | 200 knots IAS | 110 fpm VS
[17:35] NOTE: ----- TAKE OFF -----
[17:35] FOB: 52820 lbs
[17:35] Speed Data: 184 knots GS | 197 knots TAS | 200 knots IAS | 110 fpm VS
[17:35] FOB: 52820 lbs
[17:35] Heading: 279° | Pitch: 2° | Bank: 0°
[17:35] NOTE: ----- TAKE OFF -----
[17:35] METAR: KPHL 061454Z 06008KT 10SM BKN025 BKN075 OVC190 17/09 A2992 RMK AO2 SLP133 T01720094 56029 $
[17:35] Heading: 279° | Pitch: 2° | Bank: 0°
[17:35] NOTE: Climb started
[17:35] METAR: KPHL 061454Z 06008KT 10SM BKN025 BKN075 OVC190 17/09 A2992 RMK AO2 SLP133 T01720094 56029 $
[17:35] NOTE: Climb started
[17:35] Speed Data: 184 knots GS | 197 knots TAS | 200 knots IAS | 110 fpm VS
[17:35] FOB: 52820 lbs
[17:35] Heading: 279° | Pitch: 2° | Bank: 0°
[17:35] METAR: KPHL 061454Z 06008KT 10SM BKN025 BKN075 OVC190 17/09 A2992 RMK AO2 SLP133 T01720094 56029 $
[17:35] NOTE: Climb started
[17:35] Landing Gear: Retracted
[17:35] Speed Data: 196 knots GS | 211 knots TAS | 213 knots IAS | 3135 fpm VS
[17:35] Altitude Data: 276 ft AGL | 308 ft AMSL
[17:36] Flaps: Position 4
[17:36] Speed Data: 217 knots GS | 235 knots TAS | 234 knots IAS | 2514 fpm VS
[17:36] Flaps: Position 3
[17:36] Speed Data: 225 knots GS | 249 knots TAS | 246 knots IAS | 2242 fpm VS
[17:37] Flaps: Position 2
[17:37] Speed Data: 246 knots GS | 274 knots TAS | 263 knots IAS | 2503 fpm VS
[17:38] Flaps: Position 0
[17:38] Speed Data: 258 knots GS | 287 knots TAS | 270 knots IAS | 2507 fpm VS
[18:59] Flaps: Position 1
[18:59] Speed Data: 281 knots GS | 295 knots TAS | 275 knots IAS | -270 fpm VS
[19:00] Flaps: Position 2
[19:00] Speed Data: 264 knots GS | 277 knots TAS | 258 knots IAS | -1 fpm VS
[19:02] Flaps: Position 3
[19:02] Speed Data: 244 knots GS | 258 knots TAS | 239 knots IAS | 16 fpm VS
[19:02] Flaps: Position 4
[19:02] Speed Data: 231 knots GS | 247 knots TAS | 229 knots IAS | 413 fpm VS
[19:04] Flaps: Position 5
[19:04] Speed Data: 206 knots GS | 227 knots TAS | 212 knots IAS | -1600 fpm VS
[19:04] Flaps: Position 6
[19:04] Speed Data: 200 knots GS | 221 knots TAS | 207 knots IAS | -1625 fpm VS
[19:11] Landing Gear: Extended
[19:11] Speed Data: 174 knots GS | 182 knots TAS | 180 knots IAS | -887 fpm VS
[19:11] Altitude Data: 1161 ft AGL | 1620 ft AMSL
[19:12] NOTE: ----- LANDED -----
[19:12] Landing Rate: -299,12 fpm
[19:12] Speed Data: 145 knots GS | 152 knots TAS | 152 knots IAS | -265 fpm VS
[19:12] FOB: 17847 lbs
[19:12] Heading: 172° | Pitch: 1° | Bank: 0°
[19:12] METAR: KSDF 061456Z 27004KT 10SM FEW020 21/16 A2999 RMK AO2 SLP153 T02110156 55003
[19:13] NOTE: Taxi started
[19:13] Autopilot: Disengaged
[19:13] Altitude Data: 20 ft AGL | 518 ft AMSL
[19:13] Flaps: Position 0
[19:19] NOTE: Arrived
[19:19] Parking Brake: Engaged
[19:19] Engine 1: Stopped
[19:19] Engine 2: Stopped
[19:19] Engine 3: Stopped
[19:19] Engine 4: Stopped
[19:21] NOTE: Flight Completed
[19:21] FS Aircraft: Boeing 747-400 UPS
[19:21] FS Model: B744
[19:21] FS Type: BOEING
[19:21] FOB: 16768 lbs
[19:21] Fuel Used: 39508 lbs
[19:21] Flight Time: 01:51:17
[19:21] Flight Time (Dawn): 00:00:00
[19:21] Flight Time (Day): 01:51:17
[19:21] Flight Time (Dusk): 00:00:00
[19:21] Flight Time (Night): 00:00:00
[19:21] Total Landings: 1
[19:21] MaxSim Rate: 1x
[19:21] UPSVAC kACARSII - 1.1.0.1
[19:21] ----- Flight Closed -----

Route Map